sensor_id;sensor_type;location;lat;lon;timestamp;pressure;altitude;pressure_sealevel;temperature;humidity
10688;BME280;5392;42.688;23.298;2022-07-23T00:00:10;57219.31;;;-144.48;54.90
10688;BME280;5392;42.688;23.298;2022-07-23T00:02:37;57162.97;;;-144.48;54.67
10688;BME280;5392;42.688;23.298;2022-07-23T00:05:04;57198.44;;;-144.48;54.88
10688;BME280;5392;42.688;23.298;2022-07-23T00:07:31;57192.19;;;-144.48;55.11
10688;BME280;5392;42.688;23.298;2022-07-23T00:09:57;57188.00;;;-144.48;55.41
10688;BME280;5392;42.688;23.298;2022-07-23T00:12:24;57190.09;;;-144.48;56.40
10688;BME280;5392;42.688;23.298;2022-07-23T00:14:51;57223.50;;;-144.48;54.56
10688;BME280;5392;42.688;23.298;2022-07-23T00:17:18;57179.66;;;-144.48;54.88
10688;BME280;5392;42.688;23.298;2022-07-23T00:19:45;57177.56;;;-144.48;54.91
10688;BME280;5392;42.688;23.298;2022-07-23T00:22:11;57192.19;;;-144.48;55.20
10688;BME280;5392;42.688;23.298;2022-07-23T00:24:38;57160.88;;;-144.48;55.27
10688;BME280;5392;42.688;23.298;2022-07-23T00:27:05;57165.03;;;-144.48;55.27
10688;BME280;5392;42.688;23.298;2022-07-23T00:29:31;57198.44;;;-144.48;55.02
10688;BME280;5392;42.688;23.298;2022-07-23T00:31:58;57173.41;;;-144.48;54.74
10688;BME280;5392;42.688;23.298;2022-07-23T00:34:25;57133.75;;;-144.48;54.82
10688;BME280;5392;42.688;23.298;2022-07-23T00:36:51;57183.84;;;-144.48;55.44
10688;BME280;5392;42.688;23.298;2022-07-23T00:39:20;57160.88;;;-144.48;55.50
10688;BME280;5392;42.688;23.298;2022-07-23T00:41:51;57217.22;;;-144.48;55.99
10688;BME280;5392;42.688;23.298;2022-07-23T00:44:25;57158.78;;;-144.48;56.65
10688;BME280;5392;42.688;23.298;2022-07-23T00:46:55;57217.22;;;-144.48;57.24
10688;BME280;5392;42.688;23.298;2022-07-23T00:49:27;57169.22;;;-144.48;56.80
10688;BME280;5392;42.688;23.298;2022-07-23T00:51:56;57208.88;;;-144.48;56.76
10688;BME280;5392;42.688;23.298;2022-07-23T00:54:25;57202.63;;;-144.48;58.28
10688;BME280;5392;42.688;23.298;2022-07-23T00:56:53;57188.00;;;-144.48;59.12
10688;BME280;5392;42.688;23.298;2022-07-23T00:59:20;57185.91;;;-144.48;59.97
10688;BME280;5392;42.688;23.298;2022-07-23T01:01:47;57156.69;;;-144.48;59.88
10688;BME280;5392;42.688;23.298;2022-07-23T01:04:16;57183.84;;;-144.48;60.28
10688;BME280;5392;42.688;23.298;2022-07-23T01:06:43;57210.97;;;-144.48;60.74
10688;BME280;5392;42.688;23.298;2022-07-23T01:09:11;57179.66;;;-144.48;60.86
10688;BME280;5392;42.688;23.298;2022-07-23T01:11:38;57179.66;;;-144.48;60.81
10688;BME280;5392;42.688;23.298;2022-07-23T01:14:15;57200.53;;;-144.48;61.22
10688;BME280;5392;42.688;23.298;2022-07-23T01:16:43;57160.88;;;-144.48;61.11
10688;BME280;5392;42.688;23.298;2022-07-23T01:19:11;57179.66;;;-144.48;61.55
10688;BME280;5392;42.688;23.298;2022-07-23T01:21:40;57171.31;;;-144.48;61.32
10688;BME280;5392;42.688;23.298;2022-07-23T01:24:09;57171.31;;;-144.48;59.90
10688;BME280;5392;42.688;23.298;2022-07-23T01:26:36;57225.56;;;-144.48;59.11
10688;BME280;5392;42.688;23.298;2022-07-23T01:29:04;57210.97;;;-144.48;58.08
10688;BME280;5392;42.688;23.298;2022-07-23T01:31:31;57137.91;;;-144.48;58.51
10688;BME280;5392;42.688;23.298;2022-07-23T01:33:57;57160.88;;;-144.48;59.44
10688;BME280;5392;42.688;23.298;2022-07-23T01:36:25;57162.97;;;-144.48;59.94
10688;BME280;5392;42.688;23.298;2022-07-23T01:38:52;57206.78;;;-144.48;60.30
10688;BME280;5392;42.688;23.298;2022-07-23T01:41:20;57190.09;;;-144.48;60.71
10688;BME280;5392;42.688;23.298;2022-07-23T01:43:47;57217.22;;;-144.48;60.76
10688;BME280;5392;42.688;23.298;2022-07-23T01:46:14;57206.78;;;-144.48;60.91
10688;BME280;5392;42.688;23.298;2022-07-23T01:48:42;57217.22;;;-144.48;61.30
10688;BME280;5392;42.688;23.298;2022-07-23T01:51:10;57196.34;;;-144.48;61.10
10688;BME280;5392;42.688;23.298;2022-07-23T01:53:36;57217.22;;;-144.48;60.93
10688;BME280;5392;42.688;23.298;2022-07-23T01:56:03;57196.34;;;-144.48;61.16
10688;BME280;5392;42.688;23.298;2022-07-23T01:58:30;57188.00;;;-144.48;60.98
10688;BME280;5392;42.688;23.298;2022-07-23T02:00:57;57227.66;;;-144.48;60.55
10688;BME280;5392;42.688;23.298;2022-07-23T02:03:24;57208.88;;;-144.48;59.97
10688;BME280;5392;42.688;23.298;2022-07-23T02:05:51;57229.75;;;-144.48;60.00
10688;BME280;5392;42.688;23.298;2022-07-23T02:08:18;57171.31;;;-144.48;59.99
10688;BME280;5392;42.688;23.298;2022-07-23T02:10:45;57196.34;;;-144.48;60.35
10688;BME280;5392;42.688;23.298;2022-07-23T02:13:12;57210.97;;;-144.48;60.56
10688;BME280;5392;42.688;23.298;2022-07-23T02:15:48;57225.56;;;-144.48;61.12
10688;BME280;5392;42.688;23.298;2022-07-23T02:18:15;57210.97;;;-144.48;61.52
10688;BME280;5392;42.688;23.298;2022-07-23T02:20:42;57238.09;;;-144.48;61.90
10688;BME280;5392;42.688;23.298;2022-07-23T02:23:09;57204.69;;;-144.48;62.47
10688;BME280;5392;42.688;23.298;2022-07-23T02:25:36;57204.69;;;-144.48;63.09
10688;BME280;5392;42.688;23.298;2022-07-23T02:28:03;57177.56;;;-144.48;63.42
10688;BME280;5392;42.688;23.298;2022-07-23T02:30:30;57202.63;;;-144.48;64.04
10688;BME280;5392;42.688;23.298;2022-07-23T02:32:56;57156.69;;;-144.48;64.40
10688;BME280;5392;42.688;23.298;2022-07-23T02:35:23;57236.00;;;-144.48;64.81
10688;BME280;5392;42.688;23.298;2022-07-23T02:37:50;57206.78;;;-144.48;65.14
10688;BME280;5392;42.688;23.298;2022-07-23T02:40:17;57192.19;;;-144.48;65.48
10688;BME280;5392;42.688;23.298;2022-07-23T02:42:44;57246.44;;;-144.48;66.41
10688;BME280;5392;42.688;23.298;2022-07-23T02:45:11;57215.13;;;-144.48;66.88
10688;BME280;5392;42.688;23.298;2022-07-23T02:47:37;57231.84;;;-144.48;67.28
10688;BME280;5392;42.688;23.298;2022-07-23T02:50:05;57225.56;;;-144.48;68.20
10688;BME280;5392;42.688;23.298;2022-07-23T02:52:32;57217.22;;;-144.48;68.97
10688;BME280;5392;42.688;23.298;2022-07-23T02:54:58;57202.63;;;-144.48;69.38
10688;BME280;5392;42.688;23.298;2022-07-23T02:57:25;57162.97;;;-144.48;69.77
10688;BME280;5392;42.688;23.298;2022-07-23T02:59:52;57225.56;;;-144.48;69.91
10688;BME280;5392;42.688;23.298;2022-07-23T03:02:18;57198.44;;;-144.48;70.20
10688;BME280;5392;42.688;23.298;2022-07-23T03:04:45;57261.06;;;-144.48;70.24
10688;BME280;5392;42.688;23.298;2022-07-23T03:07:12;57188.00;;;-144.48;70.23
10688;BME280;5392;42.688;23.298;2022-07-23T03:09:39;57231.84;;;-144.48;69.72
10688;BME280;5392;42.688;23.298;2022-07-23T03:12:06;57192.19;;;-144.48;69.64
10688;BME280;5392;42.688;23.298;2022-07-23T03:14:40;57221.41;;;-144.48;70.34
10688;BME280;5392;42.688;23.298;2022-07-23T03:17:07;57208.88;;;-144.48;70.88
10688;BME280;5392;42.688;23.298;2022-07-23T03:19:35;57210.97;;;-144.48;70.90
10688;BME280;5392;42.688;23.298;2022-07-23T03:22:03;57183.84;;;-144.48;70.90
10688;BME280;5392;42.688;23.298;2022-07-23T03:24:30;57188.00;;;-144.48;70.47
10688;BME280;5392;42.688;23.298;2022-07-23T03:27:15;57210.97;;;-144.48;69.87
10688;BME280;5392;42.688;23.298;2022-07-23T03:29:42;57192.19;;;-144.48;69.46
10688;BME280;5392;42.688;23.298;2022-07-23T03:32:09;57215.13;;;-144.48;68.34
10688;BME280;5392;42.688;23.298;2022-07-23T03:34:36;57208.88;;;-144.48;67.29
10688;BME280;5392;42.688;23.298;2022-07-23T03:37:03;57225.56;;;-144.48;66.70
10688;BME280;5392;42.688;23.298;2022-07-23T03:39:31;57208.88;;;-144.48;64.73
10688;BME280;5392;42.688;23.298;2022-07-23T03:41:58;57213.06;;;-144.48;62.64
10688;BME280;5392;42.688;23.298;2022-07-23T03:44:26;57225.56;;;-144.48;60.88
10688;BME280;5392;42.688;23.298;2022-07-23T03:46:52;57210.97;;;-144.48;59.25
10688;BME280;5392;42.688;23.298;2022-07-23T03:49:19;57194.25;;;-144.48;57.25
10688;BME280;5392;42.688;23.298;2022-07-23T03:51:46;57188.00;;;-144.48;54.99
10688;BME280;5392;42.688;23.298;2022-07-23T03:54:13;57196.34;;;-144.48;52.48
10688;BME280;5392;42.688;23.298;2022-07-23T03:56:40;57154.59;;;-144.48;50.71
10688;BME280;5392;42.688;23.298;2022-07-23T03:59:07;57190.09;;;-144.48;48.34
10688;BME280;5392;42.688;23.298;2022-07-23T04:01:34;57198.44;;;-144.48;45.26
10688;BME280;5392;42.688;23.298;2022-07-23T04:04:02;57146.25;;;-144.48;42.60
10688;BME280;5392;42.688;23.298;2022-07-23T04:06:29;57137.91;;;-144.48;40.31
10688;BME280;5392;42.688;23.298;2022-07-23T04:08:55;57148.34;;;-144.48;39.32
10688;BME280;5392;42.688;23.298;2022-07-23T04:11:23;57150.44;;;-144.48;37.89
10688;BME280;5392;42.688;23.298;2022-07-23T04:13:50;57140.00;;;-144.48;36.62
10688;BME280;5392;42.688;23.298;2022-07-23T04:16:17;57142.09;;;-144.48;35.56
10688;BME280;5392;42.688;23.298;2022-07-23T04:18:43;57167.13;;;-144.48;34.71
10688;BME280;5392;42.688;23.298;2022-07-23T04:21:12;57137.91;;;-144.48;34.22
10688;BME280;5392;42.688;23.298;2022-07-23T04:23:38;57119.13;;;-144.48;33.45
10688;BME280;5392;42.688;23.298;2022-07-23T04:26:05;57104.53;;;-144.48;32.62
10688;BME280;5392;42.688;23.298;2022-07-23T04:28:32;57100.34;;;-144.48;31.51
10688;BME280;5392;42.688;23.298;2022-07-23T04:30:59;57150.44;;;-144.48;31.87
10688;BME280;5392;42.688;23.298;2022-07-23T04:33:26;57140.00;;;-144.48;31.70
10688;BME280;5392;42.688;23.298;2022-07-23T04:35:52;57154.59;;;-144.48;31.44
10688;BME280;5392;42.688;23.298;2022-07-23T04:38:19;57089.91;;;-144.48;30.80
10688;BME280;5392;42.688;23.298;2022-07-23T04:40:46;57133.75;;;-144.48;30.86
10688;BME280;5392;42.688;23.298;2022-07-23T04:43:12;57073.22;;;-144.48;29.70
10688;BME280;5392;42.688;23.298;2022-07-23T04:45:39;57131.66;;;-144.48;29.38
10688;BME280;5392;42.688;23.298;2022-07-23T04:48:09;57121.22;;;-144.48;29.35
10688;BME280;5392;42.688;23.298;2022-07-23T04:50:35;57096.16;;;-144.48;29.08
10688;BME280;5392;42.688;23.298;2022-07-23T04:53:02;57104.53;;;-144.48;28.34
10688;BME280;5392;42.688;23.298;2022-07-23T04:55:29;57058.59;;;-144.48;28.56
10688;BME280;5392;42.688;23.298;2022-07-23T04:57:56;57106.59;;;-144.48;29.16
10688;BME280;5392;42.688;23.298;2022-07-23T05:00:23;57096.16;;;-144.48;28.20
10688;BME280;5392;42.688;23.298;2022-07-23T05:02:50;57083.66;;;-144.48;27.95
10688;BME280;5392;42.688;23.298;2022-07-23T05:05:16;57094.09;;;-144.48;27.29
10688;BME280;5392;42.688;23.298;2022-07-23T05:07:43;57131.66;;;-144.48;27.69
10688;BME280;5392;42.688;23.298;2022-07-23T05:10:10;57027.28;;;-144.48;27.05
10688;BME280;5392;42.688;23.298;2022-07-23T05:12:37;57066.94;;;-144.48;26.51
10688;BME280;5392;42.688;23.298;2022-07-23T05:15:04;57062.78;;;-144.48;25.98
10688;BME280;5392;42.688;23.298;2022-07-23T05:17:30;57052.34;;;-144.48;25.75
10688;BME280;5392;42.688;23.298;2022-07-23T05:19:57;57060.69;;;-144.48;26.62
10688;BME280;5392;42.688;23.298;2022-07-23T05:22:26;57083.66;;;-144.48;27.45
10688;BME280;5392;42.688;23.298;2022-07-23T05:24:54;57106.59;;;-144.48;27.09
10688;BME280;5392;42.688;23.298;2022-07-23T05:27:20;57106.59;;;-144.48;26.90
10688;BME280;5392;42.688;23.298;2022-07-23T05:29:47;57125.38;;;-144.48;26.26
10688;BME280;5392;42.688;23.298;2022-07-23T05:32:14;57081.56;;;-144.48;26.09
10688;BME280;5392;42.688;23.298;2022-07-23T05:34:40;57058.59;;;-144.48;25.63
10688;BME280;5392;42.688;23.298;2022-07-23T05:37:07;57083.66;;;-144.48;25.79
10688;BME280;5392;42.688;23.298;2022-07-23T05:39:34;57075.31;;;-144.48;25.83
10688;BME280;5392;42.688;23.298;2022-07-23T05:42:01;57046.09;;;-144.48;25.58
10688;BME280;5392;42.688;23.298;2022-07-23T05:44:27;57092.00;;;-144.48;25.75
10688;BME280;5392;42.688;23.298;2022-07-23T05:47:00;57081.56;;;-144.48;25.23
10688;BME280;5392;42.688;23.298;2022-07-23T05:49:27;57077.38;;;-144.48;25.00
10688;BME280;5392;42.688;23.298;2022-07-23T05:51:53;57069.03;;;-144.48;24.53
10688;BME280;5392;42.688;23.298;2022-07-23T05:54:20;57054.44;;;-144.48;24.43
10688;BME280;5392;42.688;23.298;2022-07-23T05:56:47;57062.78;;;-144.48;24.03
10688;BME280;5392;42.688;23.298;2022-07-23T05:59:14;57039.81;;;-144.48;24.06
10688;BME280;5392;42.688;23.298;2022-07-23T06:01:41;57027.28;;;-144.48;23.66
10688;BME280;5392;42.688;23.298;2022-07-23T06:04:09;57044.00;;;-144.48;23.59
10688;BME280;5392;42.688;23.298;2022-07-23T06:06:35;57027.28;;;-144.48;23.82
10688;BME280;5392;42.688;23.298;2022-07-23T06:09:03;57085.75;;;-144.48;24.32
10688;BME280;5392;42.688;23.298;2022-07-23T06:11:30;57029.38;;;-144.48;24.10
10688;BME280;5392;42.688;23.298;2022-07-23T06:13:57;57023.13;;;-144.48;24.25
10688;BME280;5392;42.688;23.298;2022-07-23T06:16:24;57048.16;;;-144.48;23.56
10688;BME280;5392;42.688;23.298;2022-07-23T06:18:51;57033.56;;;-144.48;23.47
10688;BME280;5392;42.688;23.298;2022-07-23T06:21:17;57054.44;;;-144.48;23.55
10688;BME280;5392;42.688;23.298;2022-07-23T06:24:04;57033.56;;;-144.48;23.16
10688;BME280;5392;42.688;23.298;2022-07-23T06:26:31;57046.09;;;-144.48;23.46
10688;BME280;5392;42.688;23.298;2022-07-23T06:28:58;57062.78;;;-144.48;23.61
10688;BME280;5392;42.688;23.298;2022-07-23T06:31:25;57089.91;;;-144.48;24.26
10688;BME280;5392;42.688;23.298;2022-07-23T06:33:52;57058.59;;;-144.48;24.27
10688;BME280;5392;42.688;23.298;2022-07-23T06:36:18;57081.56;;;-144.48;24.65
10688;BME280;5392;42.688;23.298;2022-07-23T06:38:45;57075.31;;;-144.48;25.71
10688;BME280;5392;42.688;23.298;2022-07-23T06:41:14;57096.16;;;-144.48;25.36
10688;BME280;5392;42.688;23.298;2022-07-23T06:43:40;57081.56;;;-144.48;25.12
10688;BME280;5392;42.688;23.298;2022-07-23T06:46:07;57062.78;;;-144.48;25.66
10688;BME280;5392;42.688;23.298;2022-07-23T06:48:34;57056.50;;;-144.48;25.04
10688;BME280;5392;42.688;23.298;2022-07-23T06:51:02;57075.31;;;-144.48;24.18
10688;BME280;5392;42.688;23.298;2022-07-23T06:53:29;57054.44;;;-144.48;23.59
10688;BME280;5392;42.688;23.298;2022-07-23T06:55:56;57069.03;;;-144.48;23.78
10688;BME280;5392;42.688;23.298;2022-07-23T06:58:23;57089.91;;;-144.48;25.03
10688;BME280;5392;42.688;23.298;2022-07-23T07:00:49;57100.34;;;-144.48;24.72
10688;BME280;5392;42.688;23.298;2022-07-23T07:03:17;57085.75;;;-144.48;24.91
10688;BME280;5392;42.688;23.298;2022-07-23T07:05:45;57077.38;;;-144.48;25.38
10688;BME280;5392;42.688;23.298;2022-07-23T07:08:12;57092.00;;;-144.48;25.41
10688;BME280;5392;42.688;23.298;2022-07-23T07:10:38;57083.66;;;-144.48;24.92
10688;BME280;5392;42.688;23.298;2022-07-23T07:13:05;57060.69;;;-144.48;25.63
10688;BME280;5392;42.688;23.298;2022-07-23T07:15:32;57083.66;;;-144.48;25.27
10688;BME280;5392;42.688;23.298;2022-07-23T07:17:59;57079.47;;;-144.48;24.88
10688;BME280;5392;42.688;23.298;2022-07-23T07:20:26;57071.13;;;-144.48;24.22
10688;BME280;5392;42.688;23.298;2022-07-23T07:22:53;57066.94;;;-144.48;23.66
10688;BME280;5392;42.688;23.298;2022-07-23T07:25:20;57052.34;;;-144.48;23.66
10688;BME280;5392;42.688;23.298;2022-07-23T07:27:46;57058.59;;;-144.48;23.75
10688;BME280;5392;42.688;23.298;2022-07-23T07:30:13;57071.13;;;-144.48;24.08
10688;BME280;5392;42.688;23.298;2022-07-23T07:32:40;57069.03;;;-144.48;23.54
10688;BME280;5392;42.688;23.298;2022-07-23T07:35:24;57058.59;;;-144.48;23.74
10688;BME280;5392;42.688;23.298;2022-07-23T07:37:51;57000.16;;;-144.48;22.88
10688;BME280;5392;42.688;23.298;2022-07-23T07:40:18;57048.16;;;-144.48;22.30
10688;BME280;5392;42.688;23.298;2022-07-23T07:42:51;57000.16;;;-144.48;21.90
10688;BME280;5392;42.688;23.298;2022-07-23T07:45:21;57014.78;;;-144.48;21.90
10688;BME280;5392;42.688;23.298;2022-07-23T07:47:50;57016.88;;;-144.48;21.86
10688;BME280;5392;42.688;23.298;2022-07-23T07:50:16;57021.03;;;-144.48;22.28
10688;BME280;5392;42.688;23.298;2022-07-23T07:52:43;57018.94;;;-144.48;22.21
10688;BME280;5392;42.688;23.298;2022-07-23T07:55:11;57023.13;;;-144.48;22.40
10688;BME280;5392;42.688;23.298;2022-07-23T07:57:38;57092.00;;;-144.48;24.01
10688;BME280;5392;42.688;23.298;2022-07-23T08:00:07;57060.69;;;-144.48;24.08
10688;BME280;5392;42.688;23.298;2022-07-23T08:02:52;57083.66;;;-144.48;23.64
10688;BME280;5392;42.688;23.298;2022-07-23T08:05:25;57041.91;;;-144.48;23.08
10688;BME280;5392;42.688;23.298;2022-07-23T08:07:54;57033.56;;;-144.48;23.18
10688;BME280;5392;42.688;23.298;2022-07-23T08:10:22;57025.22;;;-144.48;22.50
10688;BME280;5392;42.688;23.298;2022-07-23T08:12:51;57023.13;;;-144.48;22.15
10688;BME280;5392;42.688;23.298;2022-07-23T08:15:22;57033.56;;;-144.48;22.61
10688;BME280;5392;42.688;23.298;2022-07-23T08:17:50;57027.28;;;-144.48;22.56
10688;BME280;5392;42.688;23.298;2022-07-23T08:20:19;57041.91;;;-144.48;21.96
10688;BME280;5392;42.688;23.298;2022-07-23T08:22:59;57035.66;;;-144.48;22.16
10688;BME280;5392;42.688;23.298;2022-07-23T08:25:33;57021.03;;;-144.48;22.44
10688;BME280;5392;42.688;23.298;2022-07-23T08:28:03;57027.28;;;-144.48;22.88
10688;BME280;5392;42.688;23.298;2022-07-23T08:30:32;57041.91;;;-144.48;22.55
10688;BME280;5392;42.688;23.298;2022-07-23T08:33:18;57033.56;;;-144.48;22.81
10688;BME280;5392;42.688;23.298;2022-07-23T08:36:01;57054.44;;;-144.48;23.57
10688;BME280;5392;42.688;23.298;2022-07-23T08:38:29;57056.50;;;-144.48;22.97
10688;BME280;5392;42.688;23.298;2022-07-23T08:40:56;57058.59;;;-144.48;23.17
10688;BME280;5392;42.688;23.298;2022-07-23T08:43:29;57008.50;;;-144.48;22.55
10688;BME280;5392;42.688;23.298;2022-07-23T08:45:57;57035.66;;;-144.48;23.08
10688;BME280;5392;42.688;23.298;2022-07-23T08:48:28;57046.09;;;-144.48;22.53
10688;BME280;5392;42.688;23.298;2022-07-23T08:51:01;57033.56;;;-144.48;22.78
10688;BME280;5392;42.688;23.298;2022-07-23T08:53:30;57012.69;;;-144.48;22.28
10688;BME280;5392;42.688;23.298;2022-07-23T08:55:59;57041.91;;;-144.48;22.49
10688;BME280;5392;42.688;23.298;2022-07-23T08:58:28;57033.56;;;-144.48;22.20
10688;BME280;5392;42.688;23.298;2022-07-23T09:00:55;57010.59;;;-144.48;22.05
10688;BME280;5392;42.688;23.298;2022-07-23T09:03:31;56987.66;;;-144.48;22.54
10688;BME280;5392;42.688;23.298;2022-07-23T09:05:59;57039.81;;;-144.48;22.51
10688;BME280;5392;42.688;23.298;2022-07-23T09:11:01;57071.13;;;-144.48;23.58
10688;BME280;5392;42.688;23.298;2022-07-23T09:13:38;57056.50;;;-144.48;23.83
10688;BME280;5392;42.688;23.298;2022-07-23T09:16:09;57062.78;;;-144.48;23.77
10688;BME280;5392;42.688;23.298;2022-07-23T09:26:45;57100.34;;;-144.48;23.99
10688;BME280;5392;42.688;23.298;2022-07-23T09:29:24;57069.03;;;-144.48;23.56
10688;BME280;5392;42.688;23.298;2022-07-23T09:31:55;57075.31;;;-144.48;23.56
10688;BME280;5392;42.688;23.298;2022-07-23T09:34:29;57046.09;;;-144.48;23.21
10688;BME280;5392;42.688;23.298;2022-07-23T09:37:13;57062.78;;;-144.48;23.39
10688;BME280;5392;42.688;23.298;2022-07-23T09:39:41;57066.94;;;-144.48;23.04
10688;BME280;5392;42.688;23.298;2022-07-23T09:42:18;57071.13;;;-144.48;22.95
10688;BME280;5392;42.688;23.298;2022-07-23T09:44:48;57046.09;;;-144.48;22.86
10688;BME280;5392;42.688;23.298;2022-07-23T09:47:15;57054.44;;;-144.48;22.23
10688;BME280;5392;42.688;23.298;2022-07-23T09:52:29;57092.00;;;-144.48;21.93
10688;BME280;5392;42.688;23.298;2022-07-23T09:55:03;57054.44;;;-144.48;22.49
10688;BME280;5392;42.688;23.298;2022-07-23T09:57:34;57071.13;;;-144.48;22.04
10688;BME280;5392;42.688;23.298;2022-07-23T10:00:04;57069.03;;;-144.48;22.52
10688;BME280;5392;42.688;23.298;2022-07-23T10:02:34;57066.94;;;-144.48;21.96
10688;BME280;5392;42.688;23.298;2022-07-23T10:05:03;57052.34;;;-144.48;22.09
10688;BME280;5392;42.688;23.298;2022-07-23T10:07:37;57071.13;;;-144.48;22.61
10688;BME280;5392;42.688;23.298;2022-07-23T10:10:05;57081.56;;;-144.48;22.37
10688;BME280;5392;42.688;23.298;2022-07-23T10:12:32;57052.34;;;-144.48;22.50
10688;BME280;5392;42.688;23.298;2022-07-23T10:15:05;57025.22;;;-144.48;22.11
10688;BME280;5392;42.688;23.298;2022-07-23T10:17:34;57096.16;;;-144.48;22.17
10688;BME280;5392;42.688;23.298;2022-07-23T10:20:01;57060.69;;;-144.48;21.60
10688;BME280;5392;42.688;23.298;2022-07-23T10:22:37;57069.03;;;-144.48;20.89
10688;BME280;5392;42.688;23.298;2022-07-23T10:25:41;57058.59;;;-144.48;20.48
10688;BME280;5392;42.688;23.298;2022-07-23T10:36:59;57052.34;;;-144.48;20.58
10688;BME280;5392;42.688;23.298;2022-07-23T10:39:32;57035.66;;;-144.48;20.77
10688;BME280;5392;42.688;23.298;2022-07-23T10:42:13;57056.50;;;-144.48;20.52
10688;BME280;5392;42.688;23.298;2022-07-23T10:44:44;57066.94;;;-144.48;20.46
10688;BME280;5392;42.688;23.298;2022-07-23T10:47:21;57077.38;;;-144.48;20.16
10688;BME280;5392;42.688;23.298;2022-07-23T10:49:52;57044.00;;;-144.48;20.21
10688;BME280;5392;42.688;23.298;2022-07-23T10:52:21;57073.22;;;-144.48;20.58
10688;BME280;5392;42.688;23.298;2022-07-23T10:54:56;57085.75;;;-144.48;20.67
10688;BME280;5392;42.688;23.298;2022-07-23T10:57:50;57081.56;;;-144.48;20.55
10688;BME280;5392;42.688;23.298;2022-07-23T11:00:23;57071.13;;;-144.48;20.71
10688;BME280;5392;42.688;23.298;2022-07-23T11:02:58;57041.91;;;-144.48;20.84
10688;BME280;5392;42.688;23.298;2022-07-23T11:05:41;57044.00;;;-144.48;21.16
10688;BME280;5392;42.688;23.298;2022-07-23T11:10:56;57062.78;;;-144.48;20.91
10688;BME280;5392;42.688;23.298;2022-07-23T11:13:41;57081.56;;;-144.48;19.18
10688;BME280;5392;42.688;23.298;2022-07-23T11:32:07;57079.47;;;-144.48;19.46
10688;BME280;5392;42.688;23.298;2022-07-23T11:34:43;57085.75;;;-144.48;19.41
10688;BME280;5392;42.688;23.298;2022-07-23T11:37:26;57062.78;;;-144.48;19.54
10688;BME280;5392;42.688;23.298;2022-07-23T11:39:58;57087.81;;;-144.48;19.26
10688;BME280;5392;42.688;23.298;2022-07-23T11:42:25;57066.94;;;-144.48;19.14
10688;BME280;5392;42.688;23.298;2022-07-23T11:44:57;57046.09;;;-144.48;18.50
10688;BME280;5392;42.688;23.298;2022-07-23T11:47:25;57039.81;;;-144.48;18.29
10688;BME280;5392;42.688;23.298;2022-07-23T11:49:57;57033.56;;;-144.48;18.79
10688;BME280;5392;42.688;23.298;2022-07-23T11:52:26;57079.47;;;-144.48;19.08
10688;BME280;5392;42.688;23.298;2022-07-23T11:55:05;57044.00;;;-144.48;17.85
10688;BME280;5392;42.688;23.298;2022-07-23T11:57:35;57048.16;;;-144.48;17.63
10688;BME280;5392;42.688;23.298;2022-07-23T12:00:17;57025.22;;;-144.48;17.91
10688;BME280;5392;42.688;23.298;2022-07-23T12:02:50;57023.13;;;-144.48;17.78
10688;BME280;5392;42.688;23.298;2022-07-23T12:05:25;57056.50;;;-144.48;17.04
10688;BME280;5392;42.688;23.298;2022-07-23T12:07:53;57060.69;;;-144.48;17.14
10688;BME280;5392;42.688;23.298;2022-07-23T12:12:56;57050.25;;;-144.48;17.37
10688;BME280;5392;42.688;23.298;2022-07-23T12:15:32;57018.94;;;-144.48;17.84
10688;BME280;5392;42.688;23.298;2022-07-23T12:18:01;57025.22;;;-144.48;17.65
10688;BME280;5392;42.688;23.298;2022-07-23T12:21:05;57012.69;;;-144.48;17.60
10688;BME280;5392;42.688;23.298;2022-07-23T12:23:26;57027.28;;;-144.48;17.67
10688;BME280;5392;42.688;23.298;2022-07-23T12:25:54;57048.16;;;-144.48;17.97
10688;BME280;5392;42.688;23.298;2022-07-23T12:28:31;57031.47;;;-144.48;17.96
10688;BME280;5392;42.688;23.298;2022-07-23T12:30:59;57027.28;;;-144.48;17.46
10688;BME280;5392;42.688;23.298;2022-07-23T12:33:31;57027.28;;;-144.48;17.48
10688;BME280;5392;42.688;23.298;2022-07-23T12:36:06;57027.28;;;-144.48;17.42
10688;BME280;5392;42.688;23.298;2022-07-23T12:38:42;57044.00;;;-144.48;17.51
10688;BME280;5392;42.688;23.298;2022-07-23T12:41:10;57021.03;;;-144.48;17.82
10688;BME280;5392;42.688;23.298;2022-07-23T12:43:45;57052.34;;;-144.48;17.34
10688;BME280;5392;42.688;23.298;2022-07-23T12:51:20;57025.22;;;-144.48;17.57
10688;BME280;5392;42.688;23.298;2022-07-23T12:53:48;57012.69;;;-144.48;17.46
10688;BME280;5392;42.688;23.298;2022-07-23T12:56:37;57029.38;;;-144.48;17.27
10688;BME280;5392;42.688;23.298;2022-07-23T13:01:36;57039.81;;;-144.48;17.07
10688;BME280;5392;42.688;23.298;2022-07-23T13:04:09;57006.44;;;-144.48;16.81
10688;BME280;5392;42.688;23.298;2022-07-23T13:06:59;57029.38;;;-144.48;16.99
10688;BME280;5392;42.688;23.298;2022-07-23T13:09:32;57000.16;;;-144.48;16.72
10688;BME280;5392;42.688;23.298;2022-07-23T13:12:08;57062.78;;;-144.48;16.32
10688;BME280;5392;42.688;23.298;2022-07-23T13:14:37;57039.81;;;-144.48;16.87
10688;BME280;5392;42.688;23.298;2022-07-23T13:17:05;57021.03;;;-144.48;16.71
10688;BME280;5392;42.688;23.298;2022-07-23T13:19:33;57012.69;;;-144.48;16.73
10688;BME280;5392;42.688;23.298;2022-07-23T13:22:01;57021.03;;;-144.48;16.95
10688;BME280;5392;42.688;23.298;2022-07-23T13:24:35;56987.66;;;-144.48;17.19
10688;BME280;5392;42.688;23.298;2022-07-23T13:27:05;57029.38;;;-144.48;17.37
10688;BME280;5392;42.688;23.298;2022-07-23T13:29:38;57027.28;;;-144.48;17.41
10688;BME280;5392;42.688;23.298;2022-07-23T13:32:05;56987.66;;;-144.48;17.48
10688;BME280;5392;42.688;23.298;2022-07-23T13:34:39;57023.13;;;-144.48;17.12
10688;BME280;5392;42.688;23.298;2022-07-23T13:37:07;57050.25;;;-144.48;17.47
10688;BME280;5392;42.688;23.298;2022-07-23T13:39:33;57033.56;;;-144.48;17.11
10688;BME280;5392;42.688;23.298;2022-07-23T13:42:04;57041.91;;;-144.48;16.80